createdAt,value
2024-05-09T00:00:01.028Z,90
2024-05-09T00:15:00.352Z,90
2024-05-09T00:30:00.474Z,89
2024-05-09T00:45:00.307Z,89
2024-05-09T01:00:00.422Z,89
2024-05-09T01:15:00.363Z,89
2024-05-09T01:30:00.808Z,90
2024-05-09T01:45:00.348Z,90
2024-05-09T02:00:00.505Z,90
2024-05-09T02:15:00.290Z,90
2024-05-09T02:30:00.496Z,90
2024-05-09T02:45:00.328Z,90
2024-05-09T03:00:00.475Z,90
2024-05-09T03:15:00.330Z,90
2024-05-09T03:30:00.435Z,90
2024-05-09T03:45:00.347Z,90
2024-05-09T04:00:00.393Z,90
2024-05-09T04:15:00.379Z,90
2024-05-09T04:30:00.393Z,90
2024-05-09T04:45:00.422Z,90
2024-05-09T05:00:00.401Z,90
2024-05-09T05:15:00.391Z,90
2024-05-09T05:30:00.295Z,90
2024-05-09T05:45:00.258Z,83
2024-05-09T06:00:00.813Z,83
2024-05-09T06:15:00.426Z,83
2024-05-09T06:30:00.602Z,79
2024-05-09T06:45:00.325Z,79
2024-05-09T07:00:00.273Z,79
2024-05-09T07:15:00.500Z,79
2024-05-09T07:30:01.024Z,74
2024-05-09T07:45:11.155Z,74
2024-05-09T08:00:00.391Z,74
2024-05-09T08:15:00.361Z,74
2024-05-09T08:30:00.923Z,69
2024-05-09T08:45:00.443Z,69
2024-05-09T09:00:00.436Z,69
2024-05-09T09:15:00.414Z,69
2024-05-09T09:30:00.506Z,66
2024-05-09T09:45:04.139Z,66
2024-05-09T10:00:01.127Z,66
2024-05-09T10:15:00.407Z,66
2024-05-09T10:30:00.323Z,63
2024-05-09T10:45:00.427Z,63
2024-05-09T11:00:00.742Z,63
2024-05-09T11:15:00.431Z,63
2024-05-09T11:30:00.772Z,60
2024-05-09T11:45:00.542Z,59
2024-05-09T12:00:00.353Z,59
2024-05-09T12:15:00.316Z,59
2024-05-09T12:30:00.453Z,58
2024-05-09T12:45:00.439Z,58
2024-05-09T13:00:00.344Z,58
2024-05-09T13:15:00.352Z,58
2024-05-09T13:30:00.439Z,63
2024-05-09T13:45:00.350Z,63
2024-05-09T14:00:00.375Z,63
2024-05-09T14:15:00.376Z,63
2024-05-09T14:30:00.359Z,69
2024-05-09T14:45:00.326Z,69
2024-05-09T15:00:00.664Z,69
2024-05-09T15:15:00.420Z,69
2024-05-09T15:30:00.410Z,67
2024-05-09T15:45:00.311Z,67
2024-05-09T16:00:00.633Z,67
2024-05-09T16:15:00.407Z,67
2024-05-09T16:30:00.925Z,68
2024-05-09T16:45:00.330Z,68
2024-05-09T17:00:00.563Z,68
2024-05-09T17:15:00.555Z,68
2024-05-09T17:30:00.454Z,72
2024-05-09T17:45:00.394Z,75
2024-05-09T18:00:00.380Z,75
2024-05-09T18:15:00.380Z,75
2024-05-09T18:30:00.457Z,77
2024-05-09T18:45:00.351Z,77
2024-05-09T19:00:00.518Z,77
2024-05-09T19:15:00.343Z,77
2024-05-09T19:30:00.385Z,81
2024-05-09T19:45:00.342Z,81
2024-05-09T20:00:00.617Z,81
2024-05-09T20:15:00.274Z,81
2024-05-09T20:30:00.544Z,81
2024-05-09T20:45:00.419Z,81
2024-05-09T22:00:00.425Z,85
2024-05-09T22:15:00.288Z,85
2024-05-09T22:30:00.932Z,86
2024-05-09T22:45:00.450Z,86
2024-05-09T23:00:00.448Z,86
2024-05-09T23:15:00.313Z,86
2024-05-09T23:30:00.394Z,86
2024-05-09T23:45:00.294Z,86
